Terminal Aerodrome Forecast
Issued by NWS Paducah, KY

Home | Current Version | Previous Version | Text Only | Print | Product List | Glossary On
Versions: 1 2 3 4 5 6 7 8 9 10 11 12 13 14 15 16 17 18 19 20
000
FTUS43 KPAH 301140
TAFEVV
TAF
KEVV 301140Z 3012/3112 17005KT P6SM FEW060 SCT250
     FM301500 18013G21KT P6SM SCT025 BKN040
      TEMPO 3020/3024 TSRA BKN025CB OVC040
     FM310000 20018G25KT P6SM BKN018
     FM310300 26013G20KT P6SM BKN008 OVC012
     FM310800 29009KT P6SM OVC005=

USA.gov is the U.S. government's official web portal to all federal, state and local government web resources and services.